createdAt,value
2023-02-25T00:00:18.924Z,83.13
2023-02-25T00:02:51.270Z,89.80
2023-02-25T00:05:23.554Z,88.82
2023-02-25T00:07:55.446Z,89.68
2023-02-25T00:10:27.334Z,90.93
2023-02-25T00:13:12.304Z,90.57
2023-02-25T00:15:49.036Z,92.93
2023-02-25T00:18:20.922Z,91.32
2023-02-25T00:20:53.082Z,86.28
2023-02-25T00:23:25.123Z,89.82
2023-02-25T00:26:03.204Z,86.95
2023-02-25T00:28:35.732Z,88.55
2023-02-25T00:31:22.278Z,83.90
2023-02-25T00:33:54.306Z,86.20
2023-02-25T00:36:27.526Z,87.05
2023-02-25T00:38:59.643Z,86.53
2023-02-25T00:41:31.548Z,83.65
2023-02-25T00:44:03.975Z,84.18
2023-02-25T00:46:36.578Z,83.40
2023-02-25T00:49:08.480Z,84.28
2023-02-25T00:51:40.621Z,82.97
2023-02-25T00:57:08.657Z,84.75
2023-02-25T00:59:40.949Z,81.57
2023-02-25T01:02:12.754Z,84.40
2023-02-25T01:04:46.649Z,87.13
2023-02-25T01:07:20.905Z,78.13
2023-02-25T01:09:56.099Z,87.82
2023-02-25T01:12:27.961Z,92.90
2023-02-25T01:15:00.127Z,84.85
2023-02-25T01:17:31.996Z,86.60
2023-02-25T01:20:06.611Z,85.22
2023-02-25T01:22:41.706Z,87.72
2023-02-25T01:25:16.311Z,88.07
2023-02-25T01:27:48.284Z,85.53
2023-02-25T01:30:20.124Z,89.72
2023-02-25T01:32:52.577Z,99.03
2023-02-25T01:35:24.413Z,90.00
2023-02-25T01:37:56.943Z,90.18
2023-02-25T01:40:28.823Z,86.10
2023-02-25T01:43:00.683Z,87.53
2023-02-25T01:45:33.154Z,84.85
2023-02-25T01:48:13.620Z,80.28
2023-02-25T01:51:02.956Z,81.93
2023-02-25T01:53:40.356Z,83.88
2023-02-25T01:56:16.727Z,80.55
2023-02-25T01:58:49.287Z,77.13
2023-02-25T02:01:24.453Z,72.88
2023-02-25T02:03:56.831Z,70.65
2023-02-25T02:06:34.418Z,66.90
2023-02-25T02:09:10.079Z,68.40
2023-02-25T02:11:42.621Z,72.72
2023-02-25T02:14:22.662Z,72.57
2023-02-25T02:17:19.395Z,74.80
2023-02-25T02:20:13.275Z,73.60
2023-02-25T02:23:11.770Z,79.82
2023-02-25T02:26:01.945Z,78.60
2023-02-25T02:28:42.962Z,78.93
2023-02-25T02:31:20.750Z,81.50
2023-02-25T02:34:07.695Z,89.38
2023-02-25T02:36:56.442Z,91.97
2023-02-25T02:39:34.003Z,85.40
2023-02-25T02:42:27.540Z,79.78
2023-02-25T02:45:24.387Z,76.78
2023-02-25T02:48:03.199Z,75.55
2023-02-25T02:50:46.379Z,72.72
2023-02-25T02:53:26.855Z,72.88
2023-02-25T02:56:03.374Z,63.47
2023-02-25T03:01:34.614Z,65.03
2023-02-25T03:04:10.729Z,65.28
2023-02-25T03:06:46.794Z,69.20
2023-02-25T03:09:46.730Z,72.68
2023-02-25T03:12:19.568Z,70.28
2023-02-25T03:14:51.553Z,77.90
2023-02-25T03:17:29.190Z,75.78
2023-02-25T03:20:14.242Z,75.28
2023-02-25T03:22:49.280Z,85.32
2023-02-25T03:25:23.320Z,85.32
2023-02-25T03:27:58.684Z,80.18
2023-02-25T03:30:51.204Z,87.07
2023-02-25T03:33:32.649Z,86.82
2023-02-25T03:36:12.332Z,89.57
2023-02-25T03:38:51.062Z,91.47
2023-02-25T03:41:27.931Z,95.38
2023-02-25T03:44:00.302Z,107.38
2023-02-25T03:46:33.208Z,107.28
2023-02-25T03:49:07.451Z,102.63
2023-02-25T03:51:41.550Z,119.10
2023-02-25T03:54:16.682Z,107.90
2023-02-25T03:56:52.550Z,101.93
2023-02-25T03:59:27.992Z,104.22
2023-02-25T04:02:02.077Z,105.85
2023-02-25T04:04:34.131Z,110.75
2023-02-25T04:07:05.978Z,113.22
2023-02-25T04:09:39.868Z,117.82
2023-02-25T04:12:12.440Z,104.05
2023-02-25T04:14:44.405Z,114.00
2023-02-25T04:17:16.839Z,111.80
2023-02-25T04:19:52.304Z,105.38
2023-02-25T04:22:24.294Z,108.20
2023-02-25T04:24:56.088Z,103.38
2023-02-25T04:27:28.026Z,107.55
2023-02-25T04:30:00.180Z,109.07
2023-02-25T04:32:32.264Z,101.00
2023-02-25T04:35:04.512Z,105.28
2023-02-25T04:37:36.465Z,109.32
2023-02-25T04:40:13.678Z,97.70
2023-02-25T04:42:45.735Z,104.45
2023-02-25T04:45:18.300Z,101.45
2023-02-25T04:47:50.859Z,117.43
2023-02-25T04:50:22.738Z,105.80
2023-02-25T04:52:54.721Z,96.78
2023-02-25T04:55:26.810Z,102.20
2023-02-25T04:57:58.925Z,94.32
2023-02-25T05:00:30.823Z,94.32
2023-02-25T05:03:02.702Z,96.32
2023-02-25T05:05:34.638Z,91.35
2023-02-25T05:08:07.047Z,93.32
2023-02-25T05:10:38.984Z,103.20
2023-02-25T05:13:10.878Z,95.75
2023-02-25T05:15:43.040Z,101.78
2023-02-25T05:18:15.041Z,97.97
2023-02-25T05:20:48.011Z,101.60
2023-02-25T05:23:19.908Z,112.30
2023-02-25T05:25:51.868Z,104.78
2023-02-25T05:28:24.152Z,110.00
2023-02-25T05:30:57.729Z,93.43
2023-02-25T05:33:29.860Z,95.85
2023-02-25T05:36:01.799Z,84.10
2023-02-25T05:38:34.036Z,99.97
2023-02-25T05:41:06.686Z,93.75
2023-02-25T05:43:39.857Z,91.88
2023-02-25T05:46:14.019Z,95.18
2023-02-25T05:48:46.712Z,100.90
2023-02-25T05:51:20.089Z,100.22
2023-02-25T05:53:52.961Z,91.03
2023-02-25T05:56:28.369Z,95.28
2023-02-25T05:59:02.065Z,76.25
2023-02-25T06:01:33.897Z,87.55
2023-02-25T06:04:05.948Z,65.13
2023-02-25T06:06:37.930Z,61.15
2023-02-25T06:09:10.471Z,57.33
2023-02-25T06:11:42.809Z,57.47
2023-02-25T06:14:16.021Z,54.50
2023-02-25T06:16:47.981Z,57.47
2023-02-25T06:19:19.960Z,58.50
2023-02-25T06:21:55.452Z,60.70
2023-02-25T06:24:27.381Z,60.83
2023-02-25T06:26:59.317Z,58.85
2023-02-25T06:29:31.245Z,59.80
2023-02-25T06:32:03.280Z,55.58
2023-02-25T06:34:35.321Z,55.03
2023-02-25T06:37:07.777Z,55.47
2023-02-25T06:39:43.096Z,54.35
2023-02-25T06:42:15.034Z,49.22
2023-02-25T06:44:46.896Z,50.13
2023-02-25T06:47:18.793Z,50.47
2023-02-25T06:49:50.725Z,46.08
2023-02-25T06:52:24.461Z,42.58
2023-02-25T06:54:56.374Z,46.95
2023-02-25T06:57:28.268Z,45.15
2023-02-25T07:00:00.224Z,45.70
2023-02-25T07:02:32.362Z,48.38
2023-02-25T07:05:05.657Z,42.33
2023-02-25T07:07:37.582Z,60.67
2023-02-25T07:10:11.444Z,40.13
2023-02-25T07:12:43.392Z,46.47
2023-02-25T07:15:15.306Z,41.78
2023-02-25T07:17:47.697Z,35.28
2023-02-25T07:20:19.572Z,39.28
2023-02-25T07:22:51.443Z,41.67
2023-02-25T07:25:23.352Z,38.47
2023-02-25T07:27:55.162Z,35.05
2023-02-25T07:30:27.033Z,31.80
2023-02-25T07:32:58.944Z,35.05
2023-02-25T07:35:31.286Z,33.00
2023-02-25T07:38:03.121Z,35.55
2023-02-25T07:40:34.958Z,34.22
2023-02-25T07:43:07.301Z,37.33
2023-02-25T07:45:41.415Z,36.15
2023-02-25T07:48:13.297Z,34.05
2023-02-25T07:50:45.200Z,32.38
2023-02-25T07:53:17.453Z,28.50
2023-02-25T07:55:50.413Z,29.05
2023-02-25T07:58:22.304Z,28.85
2023-02-25T08:00:54.969Z,26.05
2023-02-25T08:03:26.844Z,28.33
2023-02-25T08:06:00.450Z,26.75
2023-02-25T08:08:32.400Z,29.60
2023-02-25T08:11:08.576Z,24.08
2023-02-25T08:13:41.492Z,21.98
2023-02-25T08:16:16.574Z,24.48
2023-02-25T08:18:49.205Z,28.80
2023-02-25T08:21:23.802Z,20.85
2023-02-25T08:23:55.881Z,27.15
2023-02-25T08:26:27.958Z,24.85
2023-02-25T08:28:59.996Z,24.58
2023-02-25T08:31:31.999Z,22.73
2023-02-25T08:34:04.012Z,21.63
2023-02-25T08:36:37.106Z,26.60
2023-02-25T08:39:10.582Z,21.13
2023-02-25T08:41:44.221Z,25.98
2023-02-25T08:44:16.114Z,23.92
2023-02-25T08:46:48.103Z,20.83
2023-02-25T08:49:20.158Z,22.88
2023-02-25T08:51:52.326Z,23.85
2023-02-25T08:54:24.231Z,24.67
2023-02-25T08:56:57.258Z,26.52
2023-02-25T08:59:29.197Z,27.23
2023-02-25T09:02:15.118Z,26.02
2023-02-25T09:04:47.069Z,24.45
2023-02-25T09:07:20.587Z,24.35
2023-02-25T09:09:52.770Z,30.95
2023-02-25T09:12:24.922Z,19.95
2023-02-25T09:14:56.839Z,25.92
2023-02-25T09:17:28.777Z,22.58
2023-02-25T09:20:01.521Z,25.77
2023-02-25T09:22:36.254Z,22.20
2023-02-25T09:25:08.468Z,21.60
2023-02-25T09:27:40.407Z,23.60
2023-02-25T09:30:13.130Z,23.52
2023-02-25T09:32:45.598Z,26.50
2023-02-25T09:35:17.574Z,23.92
2023-02-25T09:37:49.522Z,25.85
2023-02-25T09:40:22.980Z,27.85
2023-02-25T09:43:16.624Z,26.58
2023-02-25T09:45:51.058Z,24.45
2023-02-25T09:48:34.774Z,22.83
2023-02-25T09:51:23.090Z,30.38
2023-02-25T09:54:34.793Z,29.30
2023-02-25T09:59:39.889Z,26.67
2023-02-25T10:02:35.950Z,25.58
2023-02-25T10:05:26.111Z,32.15
2023-02-25T10:08:12.223Z,33.15
2023-02-25T10:10:59.488Z,26.33
2023-02-25T10:13:48.513Z,26.60
2023-02-25T10:16:26.134Z,28.23
2023-02-25T10:19:19.432Z,25.88
2023-02-25T10:22:17.381Z,27.58
2023-02-25T10:24:56.811Z,27.73
2023-02-25T10:27:33.292Z,28.70
2023-02-25T10:30:16.287Z,30.80
2023-02-25T10:32:49.184Z,29.15
2023-02-25T10:35:29.344Z,30.13
2023-02-25T10:38:01.260Z,26.15
2023-02-25T10:40:33.668Z,26.10
2023-02-25T10:43:22.262Z,31.20
2023-02-25T10:46:06.024Z,24.98
2023-02-25T10:48:39.982Z,25.10
2023-02-25T10:51:14.717Z,25.08
2023-02-25T10:53:52.795Z,22.05
2023-02-25T10:56:26.883Z,26.38
2023-02-25T10:59:04.880Z,19.77
2023-02-25T11:01:40.460Z,25.95
2023-02-25T11:04:17.979Z,23.10
2023-02-25T11:06:49.938Z,22.30
2023-02-25T11:09:21.779Z,23.92
2023-02-25T11:12:08.899Z,19.63
2023-02-25T11:14:41.644Z,21.83
2023-02-25T11:17:20.310Z,25.33
2023-02-25T11:20:02.822Z,23.27
2023-02-25T11:22:43.082Z,27.15
2023-02-25T11:25:24.392Z,17.33
2023-02-25T11:27:58.769Z,24.23
2023-02-25T11:30:37.042Z,19.58
2023-02-25T11:33:25.114Z,18.92
2023-02-25T11:35:59.941Z,19.10
2023-02-25T11:38:38.574Z,20.13
2023-02-25T11:41:23.889Z,18.23
2023-02-25T11:43:55.871Z,21.70
2023-02-25T11:46:32.636Z,20.05
2023-02-25T11:49:10.966Z,19.33
2023-02-25T11:52:09.488Z,22.92
2023-02-25T11:55:07.385Z,24.83
2023-02-25T11:57:59.629Z,21.65
2023-02-25T12:00:46.233Z,23.10
2023-02-25T12:03:34.054Z,19.15
2023-02-25T12:06:11.701Z,19.33
2023-02-25T12:09:09.430Z,19.23
2023-02-25T12:12:00.490Z,18.55
2023-02-25T12:15:09.403Z,21.13
2023-02-25T12:18:18.865Z,18.88
2023-02-25T12:21:02.745Z,15.00
2023-02-25T12:23:40.957Z,17.67
2023-02-25T12:26:33.883Z,23.08
2023-02-25T12:29:28.481Z,18.52
2023-02-25T12:32:25.933Z,24.75
2023-02-25T12:35:07.538Z,20.95
2023-02-25T12:38:02.943Z,15.70
2023-02-25T12:40:55.846Z,15.52
2023-02-25T12:43:37.175Z,15.95
2023-02-25T12:46:25.734Z,16.00
2023-02-25T12:49:27.278Z,17.33
2023-02-25T12:52:25.974Z,67.63
2023-02-25T12:55:16.604Z,17.95
2023-02-25T12:58:03.189Z,19.70
2023-02-25T13:01:12.730Z,22.27
2023-02-25T13:04:07.330Z,21.63
2023-02-25T13:07:20.681Z,21.13
2023-02-25T13:10:20.930Z,27.13
2023-02-25T13:13:11.503Z,20.35
2023-02-25T13:16:02.088Z,16.02
2023-02-25T13:19:01.467Z,18.05
2023-02-25T13:22:00.609Z,17.48
2023-02-25T13:24:53.168Z,19.80
2023-02-25T13:27:43.790Z,20.92
2023-02-25T13:30:27.757Z,18.08
2023-02-25T13:33:58.477Z,21.45
2023-02-25T13:36:40.973Z,19.58
2023-02-25T13:39:43.548Z,17.95
2023-02-25T13:42:29.175Z,14.70
2023-02-25T13:45:55.533Z,16.60
2023-02-25T13:48:35.959Z,17.92
2023-02-25T13:51:27.993Z,19.03
2023-02-25T13:54:36.678Z,20.60
2023-02-25T13:57:40.208Z,16.38
2023-02-25T14:00:24.059Z,21.17
2023-02-25T14:03:14.623Z,17.65
2023-02-25T14:06:13.864Z,15.57
2023-02-25T14:09:18.341Z,18.25
2023-02-25T14:12:11.337Z,21.23
2023-02-25T14:15:20.705Z,20.33
2023-02-25T14:18:14.564Z,15.77
2023-02-25T14:21:21.440Z,16.90
2023-02-25T14:24:20.606Z,20.10
2023-02-25T14:27:37.756Z,20.42
2023-02-25T14:30:24.463Z,25.75
2023-02-25T14:33:19.600Z,21.80
2023-02-25T14:36:13.645Z,19.52
2023-02-25T14:39:09.116Z,21.33
2023-02-25T14:42:04.001Z,21.30
2023-02-25T14:44:43.732Z,18.45
2023-02-25T14:47:29.683Z,20.83
2023-02-25T14:50:15.206Z,21.52
2023-02-25T14:53:13.232Z,21.10
2023-02-25T14:56:13.955Z,17.15
2023-02-25T14:59:03.578Z,21.17
2023-02-25T15:01:45.007Z,22.52
2023-02-25T15:04:41.905Z,18.70
2023-02-25T15:07:56.985Z,25.27
2023-02-25T15:10:53.789Z,20.98
2023-02-25T15:13:51.532Z,20.13
2023-02-25T15:16:38.834Z,23.98
2023-02-25T15:19:13.963Z,23.08
2023-02-25T15:21:49.053Z,23.55
2023-02-25T15:24:36.976Z,20.63
2023-02-25T15:27:37.788Z,19.73
2023-02-25T15:30:13.117Z,21.40
2023-02-25T15:32:56.701Z,23.33
2023-02-25T15:35:34.447Z,27.35
2023-02-25T15:38:20.526Z,25.20
2023-02-25T15:40:53.701Z,24.35
2023-02-25T15:43:46.039Z,22.83
2023-02-25T15:46:20.748Z,28.85
2023-02-25T15:49:07.898Z,33.72
2023-02-25T15:51:46.460Z,27.08
2023-02-25T15:54:30.277Z,29.15
2023-02-25T15:57:05.121Z,30.60
2023-02-25T15:59:47.146Z,30.02
2023-02-25T16:02:33.206Z,28.20
2023-02-25T16:05:22.067Z,27.00
2023-02-25T16:08:22.834Z,27.55
2023-02-25T16:10:56.890Z,24.88
2023-02-25T16:13:37.232Z,29.15
2023-02-25T16:16:11.717Z,25.70
2023-02-25T16:18:49.188Z,24.70
2023-02-25T16:21:44.453Z,24.58
2023-02-25T16:24:18.097Z,30.20
2023-02-25T16:27:01.469Z,25.38
2023-02-25T16:29:59.551Z,36.88
2023-02-25T16:33:04.768Z,27.02
2023-02-25T16:35:36.592Z,26.45
2023-02-25T16:38:27.154Z,27.83
2023-02-25T16:41:00.452Z,28.63
2023-02-25T16:43:39.166Z,32.50
2023-02-25T16:46:16.040Z,35.58
2023-02-25T16:48:56.362Z,27.77
2023-02-25T16:51:33.789Z,24.70
2023-02-25T16:54:20.564Z,33.55
2023-02-25T16:57:00.328Z,24.90
2023-02-25T16:59:35.610Z,33.33
2023-02-25T17:02:42.466Z,33.88
2023-02-25T17:05:32.538Z,27.13
2023-02-25T17:08:14.354Z,33.28
2023-02-25T17:10:53.242Z,30.00
2023-02-25T17:13:33.374Z,34.38
2023-02-25T17:16:06.867Z,32.35
2023-02-25T17:18:51.269Z,38.28
2023-02-25T17:21:35.499Z,46.55
2023-02-25T17:24:12.211Z,32.13
2023-02-25T17:26:48.578Z,39.78
2023-02-25T17:29:21.402Z,31.15
2023-02-25T17:31:55.512Z,31.25
2023-02-25T17:34:34.142Z,30.08
2023-02-25T17:37:09.215Z,37.45
2023-02-25T17:39:41.918Z,41.97
2023-02-25T17:42:39.494Z,49.63
2023-02-25T17:45:41.002Z,50.92
2023-02-25T17:48:35.294Z,138.60
2023-02-25T17:51:08.339Z,59.42
2023-02-25T17:53:50.381Z,61.90
2023-02-25T17:56:30.827Z,53.58
2023-02-25T17:59:30.502Z,55.55
2023-02-25T18:02:18.421Z,58.88
2023-02-25T18:04:53.526Z,53.42
2023-02-25T18:07:32.795Z,46.20
2023-02-25T18:10:06.755Z,56.88
2023-02-25T18:12:39.418Z,124.47
2023-02-25T18:15:20.119Z,262.75
2023-02-25T18:18:01.490Z,46.20
2023-02-25T18:23:24.036Z,43.17
2023-02-25T18:26:19.565Z,43.25
2023-02-25T18:28:52.854Z,44.40
2023-02-25T18:31:25.013Z,42.20
2023-02-25T18:33:56.966Z,43.05
2023-02-25T18:36:28.927Z,42.10
2023-02-25T18:39:04.094Z,39.88
2023-02-25T18:41:35.908Z,42.22
2023-02-25T18:44:13.778Z,47.25
2023-02-25T18:46:45.725Z,49.70
2023-02-25T18:49:17.562Z,41.42
2023-02-25T18:51:51.266Z,44.72
2023-02-25T18:54:23.065Z,45.30
2023-02-25T18:56:55.423Z,47.92
2023-02-25T18:59:27.293Z,60.88
2023-02-25T19:01:59.311Z,57.58
2023-02-25T19:04:31.230Z,58.00
2023-02-25T19:07:05.683Z,71.47
2023-02-25T19:09:38.619Z,68.47
2023-02-25T19:12:13.551Z,66.90
2023-02-25T19:14:47.236Z,52.50
2023-02-25T19:17:19.226Z,97.45
2023-02-25T19:19:51.143Z,58.20
2023-02-25T19:22:23.435Z,252.45
2023-02-25T19:24:56.277Z,51.28
2023-02-25T19:27:29.764Z,49.00
2023-02-25T19:30:03.118Z,42.70
2023-02-25T19:32:35.007Z,42.80
2023-02-25T19:35:08.542Z,42.70
2023-02-25T19:37:41.641Z,42.72
2023-02-25T19:40:16.367Z,42.53
2023-02-25T19:42:49.421Z,50.60
2023-02-25T19:45:23.620Z,42.53
2023-02-25T19:47:56.545Z,81.50
2023-02-25T19:50:31.348Z,86.00
2023-02-25T19:53:05.517Z,78.22
2023-02-25T19:55:39.063Z,84.88
2023-02-25T19:58:11.030Z,38.22
2023-02-25T20:00:46.274Z,35.60
2023-02-25T20:03:18.222Z,42.22
2023-02-25T20:05:50.078Z,38.50
2023-02-25T20:08:21.872Z,40.03
2023-02-25T20:10:53.767Z,38.58
2023-02-25T20:13:25.553Z,32.15
2023-02-25T20:16:01.867Z,33.03
2023-02-25T20:18:33.726Z,35.58
2023-02-25T20:21:06.390Z,41.78
2023-02-25T20:23:39.785Z,33.30
2023-02-25T20:26:13.991Z,35.25
2023-02-25T20:28:47.119Z,38.90
2023-02-25T20:31:20.154Z,37.90
2023-02-25T20:33:58.916Z,35.38
2023-02-25T20:36:42.309Z,35.95
2023-02-25T20:39:31.634Z,38.55
2023-02-25T20:42:30.211Z,35.30
2023-02-25T20:45:02.524Z,33.78
2023-02-25T20:47:36.523Z,27.80
2023-02-25T20:50:09.114Z,32.65
2023-02-25T20:52:41.589Z,29.45
2023-02-25T20:55:13.473Z,34.67
2023-02-25T20:57:45.743Z,31.30
2023-02-25T21:00:19.852Z,34.83
2023-02-25T21:02:51.700Z,37.85
2023-02-25T21:05:23.559Z,33.70
2023-02-25T21:07:55.613Z,29.65
2023-02-25T21:10:27.507Z,34.88
2023-02-25T21:12:59.340Z,32.75
2023-02-25T21:15:31.388Z,31.58
2023-02-25T21:18:03.654Z,35.10
2023-02-25T21:20:35.556Z,33.53
2023-02-25T21:23:08.133Z,33.72
2023-02-25T21:25:40.562Z,34.17
2023-02-25T21:28:12.649Z,38.15
2023-02-25T21:30:44.579Z,33.15
2023-02-25T21:33:17.675Z,35.25
2023-02-25T21:35:53.163Z,31.52
2023-02-25T21:38:25.655Z,34.60
2023-02-25T21:41:03.598Z,37.63
2023-02-25T21:43:36.120Z,32.92
2023-02-25T21:46:13.249Z,41.20
2023-02-25T21:48:47.401Z,36.72
2023-02-25T21:51:22.126Z,31.10
2023-02-25T21:53:59.209Z,37.67
2023-02-25T21:56:31.332Z,31.95
2023-02-25T21:59:05.631Z,35.80
2023-02-25T22:01:40.594Z,36.38
2023-02-25T22:04:12.595Z,41.92
2023-02-25T22:06:46.992Z,33.17
2023-02-25T22:09:19.964Z,30.00
2023-02-25T22:11:51.781Z,32.58
2023-02-25T22:14:24.779Z,32.92
2023-02-25T22:16:56.697Z,36.35
2023-02-25T22:19:28.568Z,35.00
2023-02-25T22:22:00.440Z,39.63
2023-02-25T22:24:32.261Z,40.20
2023-02-25T22:27:04.258Z,47.33
2023-02-25T22:29:36.165Z,62.65
2023-02-25T22:32:08.117Z,56.55
2023-02-25T22:34:40.084Z,51.33
2023-02-25T22:37:11.939Z,43.58
2023-02-25T22:39:43.824Z,48.75
2023-02-25T22:42:15.636Z,39.97
2023-02-25T22:44:48.577Z,48.92
2023-02-25T22:47:20.610Z,37.70
2023-02-25T22:49:52.421Z,37.83
2023-02-25T22:52:24.382Z,33.97
2023-02-25T22:54:56.241Z,37.90
2023-02-25T22:57:28.242Z,35.97
2023-02-25T23:00:00.108Z,37.22
2023-02-25T23:02:32.094Z,134.70
2023-02-25T23:05:04.130Z,68.43
2023-02-25T23:07:36.833Z,41.55
2023-02-25T23:10:09.771Z,43.33
2023-02-25T23:12:41.642Z,36.92
2023-02-25T23:15:13.494Z,42.55
2023-02-25T23:17:46.206Z,40.13
2023-02-25T23:20:18.236Z,40.08
2023-02-25T23:22:52.895Z,50.13
2023-02-25T23:25:24.769Z,34.78
2023-02-25T23:27:57.997Z,38.47
2023-02-25T23:30:30.291Z,47.13
2023-02-25T23:33:02.184Z,41.88
2023-02-25T23:35:34.662Z,39.63
2023-02-25T23:38:06.542Z,37.75
2023-02-25T23:40:38.524Z,39.67
2023-02-25T23:43:10.416Z,36.50
2023-02-25T23:45:46.334Z,38.55
2023-02-25T23:48:19.328Z,41.30
2023-02-25T23:50:51.180Z,40.20
2023-02-25T23:53:23.261Z,39.10
2023-02-25T23:55:55.120Z,39.55
2023-02-25T23:58:26.998Z,39.30
